createdAt,value
2019-04-07T00:04:36.317Z,20.10
2019-04-07T00:07:26.542Z,19.55
2019-04-07T00:10:15.534Z,16.87
2019-04-07T00:13:05.920Z,17.80
2019-04-07T00:15:54.731Z,19.50
2019-04-07T00:18:43.521Z,19.00
2019-04-07T00:21:51.345Z,16.07
2019-04-07T00:24:40.128Z,20.97
2019-04-07T00:27:28.924Z,17.97
2019-04-07T00:30:18.085Z,16.73
2019-04-07T00:33:08.242Z,17.90
2019-04-07T00:35:57.019Z,18.87
2019-04-07T00:38:46.129Z,18.50
2019-04-07T00:41:36.482Z,19.30
2019-04-07T00:44:26.852Z,22.40
2019-04-07T00:47:15.746Z,21.65
2019-04-07T00:53:33.502Z,17.37
2019-04-07T00:56:15.023Z,20.87
2019-04-07T00:59:04.309Z,19.93
2019-04-07T01:01:54.594Z,19.47
2019-04-07T01:04:44.874Z,20.93
2019-04-07T01:07:33.678Z,19.70
2019-04-07T01:10:22.469Z,16.50
2019-04-07T01:13:11.885Z,17.60
2019-04-07T01:16:01.777Z,21.50
2019-04-07T01:18:50.581Z,19.30
2019-04-07T01:21:41.086Z,18.13
2019-04-07T01:24:29.910Z,24.73
2019-04-07T01:27:19.184Z,21.50
2019-04-07T01:30:30.409Z,21.83
2019-04-07T01:33:20.771Z,21.63
2019-04-07T01:36:29.194Z,16.73
2019-04-07T01:39:19.458Z,17.00
2019-04-07T01:42:29.054Z,23.20
2019-04-07T01:45:36.984Z,17.70
2019-04-07T01:48:44.816Z,19.03
2019-04-07T01:51:52.985Z,19.00
2019-04-07T01:55:00.811Z,17.93
2019-04-07T01:57:42.232Z,17.80
2019-04-07T02:00:50.537Z,19.43
2019-04-07T02:03:58.503Z,19.00
2019-04-07T02:07:07.269Z,20.67
2019-04-07T02:10:16.293Z,21.50
2019-04-07T02:13:24.211Z,22.43
2019-04-07T02:16:32.031Z,25.13
2019-04-07T02:19:40.366Z,25.37
2019-04-07T02:28:47.272Z,21.77
2019-04-07T02:31:36.040Z,20.30
2019-04-07T02:34:45.575Z,24.27
2019-04-07T02:37:53.489Z,21.90
2019-04-07T02:43:56.888Z,25.70
2019-04-07T02:47:04.691Z,26.00
2019-04-07T02:50:12.534Z,29.13
2019-04-07T02:53:20.317Z,22.10
2019-04-07T02:56:29.259Z,27.23
2019-04-07T02:59:14.547Z,25.73
2019-04-07T03:02:03.247Z,24.75
2019-04-07T03:04:52.444Z,23.37
2019-04-07T03:08:01.538Z,22.50
2019-04-07T03:11:09.665Z,23.57
2019-04-07T03:14:17.851Z,20.85
2019-04-07T03:17:25.806Z,24.67
2019-04-07T03:23:44.043Z,23.33
2019-04-07T03:30:03.570Z,19.20
2019-04-07T03:33:15.338Z,17.82
2019-04-07T03:36:23.597Z,23.67
2019-04-07T03:39:30.591Z,27.77
2019-04-07T03:42:38.662Z,24.15
2019-04-07T03:45:46.692Z,26.10
2019-04-07T03:48:55.342Z,21.60
2019-04-07T03:55:13.418Z,20.93
2019-04-07T03:58:21.225Z,19.17
2019-04-07T04:01:30.046Z,21.90
2019-04-07T04:04:39.499Z,20.60
2019-04-07T04:10:58.094Z,21.30
2019-04-07T04:14:06.105Z,18.47
2019-04-07T04:16:54.906Z,20.43
2019-04-07T04:19:44.005Z,22.80
2019-04-07T04:22:34.191Z,25.50
2019-04-07T04:25:24.448Z,24.30
2019-04-07T04:28:14.324Z,20.07
2019-04-07T04:31:03.292Z,19.30
2019-04-07T04:33:54.437Z,17.87
2019-04-07T04:36:44.703Z,19.07
2019-04-07T04:39:35.491Z,19.40
2019-04-07T04:42:25.227Z,20.30
2019-04-07T04:45:34.928Z,21.60
2019-04-07T04:51:35.527Z,25.60
2019-04-07T04:54:21.984Z,25.20
2019-04-07T04:57:11.199Z,23.73
2019-04-07T04:59:54.044Z,19.30
2019-04-07T05:02:44.184Z,22.07
2019-04-07T05:05:33.431Z,20.97
2019-04-07T05:08:22.246Z,20.07
2019-04-07T05:11:11.024Z,26.70
2019-04-07T05:14:00.288Z,22.97
2019-04-07T05:16:50.439Z,23.27
2019-04-07T05:19:42.637Z,19.13
2019-04-07T05:22:29.891Z,20.67
2019-04-07T05:25:20.687Z,23.17
2019-04-07T05:28:11.325Z,21.90
2019-04-07T05:31:01.249Z,23.10
2019-04-07T05:33:50.043Z,19.60
2019-04-07T05:36:38.938Z,22.97
2019-04-07T05:39:29.343Z,20.17
2019-04-07T05:42:18.824Z,23.67
2019-04-07T05:45:10.015Z,25.13
2019-04-07T05:48:00.045Z,24.13
2019-04-07T05:50:50.454Z,26.43
2019-04-07T05:53:44.079Z,26.87
2019-04-07T05:56:31.578Z,27.40
2019-04-07T05:59:14.700Z,22.50
2019-04-07T06:02:04.221Z,22.50
2019-04-07T06:04:54.371Z,24.13
2019-04-07T06:07:43.736Z,24.20
2019-04-07T06:10:33.773Z,23.70
2019-04-07T06:13:22.571Z,20.60
2019-04-07T06:16:11.373Z,24.90
2019-04-07T06:19:01.792Z,24.73
2019-04-07T06:21:50.718Z,22.37
2019-04-07T06:24:39.503Z,19.57
2019-04-07T06:27:29.759Z,22.70
2019-04-07T06:33:28.544Z,18.87
2019-04-07T06:36:20.265Z,19.43
2019-04-07T06:39:09.519Z,23.77
2019-04-07T06:42:01.447Z,20.77
2019-04-07T06:44:52.213Z,23.57
2019-04-07T06:51:09.573Z,23.13
2019-04-07T06:54:21.622Z,20.33
2019-04-07T06:57:28.210Z,21.77
2019-04-07T07:00:11.612Z,22.60
2019-04-07T07:03:19.439Z,20.57
2019-04-07T07:12:39.124Z,19.60
2019-04-07T07:15:46.071Z,19.20
2019-04-07T07:24:29.841Z,24.97
2019-04-07T07:27:18.637Z,17.90
2019-04-07T07:30:07.816Z,18.30
2019-04-07T07:32:58.131Z,18.60
2019-04-07T07:35:49.258Z,15.63
2019-04-07T07:38:38.459Z,14.77
2019-04-07T07:41:29.007Z,13.50
2019-04-07T07:44:18.885Z,14.80
2019-04-07T07:47:07.948Z,14.10
2019-04-07T07:49:58.662Z,12.90
2019-04-07T07:52:51.277Z,13.90
2019-04-07T07:55:39.263Z,13.00
2019-04-07T07:58:31.504Z,14.13
2019-04-07T08:01:13.859Z,13.57
2019-04-07T08:04:02.011Z,11.87
2019-04-07T08:06:51.285Z,10.83
2019-04-07T08:09:42.026Z,11.67
2019-04-07T08:12:34.310Z,10.60
2019-04-07T08:15:25.524Z,13.47
2019-04-07T08:18:12.464Z,11.97
2019-04-07T08:21:03.294Z,11.70
2019-04-07T08:23:53.518Z,10.83
2019-04-07T08:26:43.720Z,10.83
2019-04-07T08:29:37.113Z,10.00
2019-04-07T08:32:27.021Z,9.83
2019-04-07T08:35:15.391Z,9.77
2019-04-07T08:38:05.765Z,10.73
2019-04-07T08:40:56.700Z,8.13
2019-04-07T08:43:46.756Z,10.80
2019-04-07T08:46:40.065Z,10.10
2019-04-07T08:49:26.081Z,8.00
2019-04-07T08:52:15.283Z,10.00
2019-04-07T08:55:06.080Z,11.30
2019-04-07T09:00:57.445Z,9.83
2019-04-07T09:03:46.256Z,7.70
2019-04-07T09:06:35.044Z,9.70
2019-04-07T09:09:32.625Z,11.27
2019-04-07T09:12:15.216Z,8.30
2019-04-07T09:15:25.972Z,11.33
2019-04-07T09:18:33.787Z,8.10
2019-04-07T09:21:42.814Z,10.97
2019-04-07T09:27:51.089Z,7.80
2019-04-07T09:31:02.162Z,9.00
2019-04-07T09:34:09.426Z,10.13
2019-04-07T09:40:16.494Z,10.40
2019-04-07T09:49:31.037Z,10.87
2019-04-07T09:52:39.583Z,9.70
2019-04-07T09:58:19.302Z,10.50
2019-04-07T10:01:28.795Z,9.57
2019-04-07T10:04:38.657Z,9.83
2019-04-07T10:07:46.842Z,10.80
2019-04-07T10:10:54.873Z,10.10
2019-04-07T10:14:03.384Z,9.03
2019-04-07T10:17:12.271Z,11.67
2019-04-07T10:20:22.337Z,10.80
2019-04-07T10:32:34.043Z,10.17
2019-04-07T10:35:41.809Z,10.03
2019-04-07T10:41:49.582Z,11.30
2019-04-07T10:47:57.822Z,10.40
2019-04-07T10:51:05.688Z,11.03
2019-04-07T10:59:51.312Z,12.10
2019-04-07T11:03:00.888Z,12.27
2019-04-07T11:09:07.988Z,11.20
2019-04-07T11:12:15.792Z,15.50
2019-04-07T11:15:25.933Z,11.70
2019-04-07T11:18:33.784Z,12.20
2019-04-07T11:21:41.611Z,15.17
2019-04-07T11:24:49.416Z,17.87
2019-04-07T11:27:57.250Z,13.90
2019-04-07T11:31:05.726Z,13.70
2019-04-07T11:33:54.549Z,12.87
2019-04-07T11:43:02.288Z,12.70
2019-04-07T11:46:10.868Z,15.47
2019-04-07T11:49:19.641Z,15.00
2019-04-07T11:55:37.576Z,13.80
2019-04-07T11:58:28.988Z,13.40
2019-04-07T12:01:31.107Z,12.57
2019-04-07T12:04:38.931Z,14.90
2019-04-07T12:11:02.204Z,14.90
2019-04-07T12:14:06.320Z,22.42
2019-04-07T12:17:15.029Z,14.80
2019-04-07T12:23:40.231Z,16.30
2019-04-07T12:26:48.122Z,18.87
2019-04-07T12:29:55.931Z,14.30
2019-04-07T12:35:40.513Z,14.40
2019-04-07T12:38:29.071Z,14.27
2019-04-07T12:44:33.239Z,14.47
2019-04-07T12:47:41.176Z,15.23
2019-04-07T12:50:50.315Z,18.33
2019-04-07T12:53:39.895Z,17.47
2019-04-07T12:56:31.693Z,14.87
2019-04-07T13:02:17.927Z,19.92
2019-04-07T13:11:47.012Z,13.63
2019-04-07T13:14:54.591Z,25.67
2019-04-07T13:18:06.113Z,18.13
2019-04-07T13:21:13.379Z,16.10
2019-04-07T13:24:30.314Z,14.50
2019-04-07T13:27:35.230Z,17.20
2019-04-07T13:33:37.160Z,15.20
2019-04-07T13:36:46.345Z,15.83
2019-04-07T13:39:54.521Z,16.13
2019-04-07T13:43:04.212Z,15.50
2019-04-07T13:46:18.871Z,14.93
2019-04-07T13:49:24.153Z,17.40
2019-04-07T13:55:19.874Z,17.10
2019-04-07T13:58:31.018Z,15.60
2019-04-07T14:01:37.262Z,15.83
2019-04-07T14:07:41.004Z,15.35
2019-04-07T14:10:57.995Z,15.03
2019-04-07T14:13:46.921Z,17.07
2019-04-07T14:16:54.731Z,16.97
2019-04-07T14:20:02.555Z,16.90
2019-04-07T14:32:02.393Z,13.87
2019-04-07T14:35:10.467Z,14.70
2019-04-07T14:38:18.952Z,14.60
2019-04-07T14:50:21.197Z,16.37
2019-04-07T14:53:30.270Z,16.70
2019-04-07T14:59:47.342Z,14.67
2019-04-07T15:02:36.504Z,18.63
2019-04-07T15:08:41.997Z,16.03
2019-04-07T15:14:32.841Z,20.37
2019-04-07T15:17:22.030Z,14.40
2019-04-07T15:20:14.376Z,16.43
2019-04-07T15:23:02.843Z,15.40
2019-04-07T15:25:53.012Z,14.20
2019-04-07T15:28:41.814Z,16.07
2019-04-07T15:31:30.901Z,14.67
2019-04-07T15:34:21.191Z,15.43
2019-04-07T15:37:10.245Z,15.10
2019-04-07T15:40:02.709Z,13.90
2019-04-07T15:42:51.273Z,12.47
2019-04-07T15:45:34.311Z,13.10
2019-04-07T15:48:25.830Z,13.30
2019-04-07T15:51:14.395Z,18.40
2019-04-07T15:54:04.184Z,14.97
2019-04-07T15:56:53.950Z,16.70
2019-04-07T15:59:43.830Z,16.47
2019-04-07T16:02:33.482Z,17.00
2019-04-07T16:05:23.145Z,15.30
2019-04-07T16:08:13.583Z,15.20
2019-04-07T16:11:02.526Z,16.70
2019-04-07T16:13:52.001Z,14.90
2019-04-07T16:16:42.622Z,16.30
2019-04-07T16:19:39.891Z,12.60
2019-04-07T16:22:22.885Z,13.50
2019-04-07T16:25:11.820Z,11.70
2019-04-07T16:28:00.681Z,13.87
2019-04-07T16:30:51.941Z,12.77
2019-04-07T16:33:40.987Z,14.40
2019-04-07T16:36:30.846Z,13.93
2019-04-07T16:39:21.000Z,12.80
2019-04-07T16:42:10.837Z,12.53
2019-04-07T16:44:53.827Z,15.07
2019-04-07T16:47:43.338Z,16.43
2019-04-07T16:50:33.326Z,11.37
2019-04-07T16:53:22.129Z,13.67
2019-04-07T16:56:11.326Z,12.70
2019-04-07T16:59:02.573Z,13.70
2019-04-07T17:01:52.881Z,12.30
2019-04-07T17:04:43.119Z,14.97
2019-04-07T17:07:33.933Z,13.90
2019-04-07T17:10:26.121Z,13.40
2019-04-07T17:13:20.119Z,18.37
2019-04-07T17:16:04.727Z,16.43
2019-04-07T17:18:56.230Z,14.50
2019-04-07T17:21:45.561Z,13.47
2019-04-07T17:24:34.577Z,27.50
2019-04-07T17:27:24.890Z,15.97
2019-04-07T17:30:35.936Z,14.00
2019-04-07T17:33:25.186Z,15.00
2019-04-07T17:36:17.624Z,16.87
2019-04-07T17:39:45.011Z,18.70
2019-04-07T17:42:33.951Z,16.70
2019-04-07T17:45:23.535Z,20.33
2019-04-07T17:48:38.576Z,18.70
2019-04-07T17:51:42.215Z,14.07
2019-04-07T17:54:52.501Z,22.13
2019-04-07T18:00:55.405Z,16.50
2019-04-07T18:04:03.769Z,15.58
2019-04-07T18:07:12.105Z,17.23
2019-04-07T18:10:22.547Z,16.07
2019-04-07T18:13:43.405Z,24.37
2019-04-07T18:19:48.655Z,17.93
2019-04-07T18:26:08.472Z,21.60
2019-04-07T18:29:15.399Z,17.50
2019-04-07T18:32:03.990Z,14.37
2019-04-07T18:34:52.856Z,25.40
2019-04-07T18:38:02.266Z,26.70
2019-04-07T18:41:11.150Z,24.63
2019-04-07T18:44:04.544Z,17.87
2019-04-07T18:47:08.200Z,18.55
2019-04-07T18:50:16.601Z,20.37
2019-04-07T18:53:27.580Z,19.55
2019-04-07T18:56:34.641Z,20.20
2019-04-07T18:59:44.220Z,19.90
2019-04-07T19:02:53.645Z,18.50
2019-04-07T19:09:11.145Z,18.90
2019-04-07T19:12:21.691Z,15.70
2019-04-07T19:15:29.731Z,14.57
2019-04-07T19:18:40.216Z,16.97
2019-04-07T19:21:48.433Z,17.00
2019-04-07T19:24:56.286Z,16.17
2019-04-07T19:28:05.032Z,14.33
2019-04-07T19:31:17.481Z,13.97
2019-04-07T19:34:23.677Z,16.57
2019-04-07T19:37:32.438Z,18.80
2019-04-07T19:40:23.534Z,19.90
2019-04-07T19:43:12.216Z,15.90
2019-04-07T19:46:19.068Z,16.17
2019-04-07T19:52:26.376Z,17.33
2019-04-07T19:55:34.617Z,16.50
2019-04-07T20:07:33.192Z,15.53
2019-04-07T20:10:40.978Z,14.83
2019-04-07T20:13:49.047Z,14.37
2019-04-07T20:16:57.769Z,14.27
2019-04-07T20:20:08.882Z,15.23
2019-04-07T20:23:17.334Z,16.30
2019-04-07T20:26:24.622Z,17.57
2019-04-07T20:29:34.111Z,16.30
2019-04-07T20:32:42.745Z,16.20
2019-04-07T20:39:00.480Z,15.30
2019-04-07T20:42:08.686Z,16.77
2019-04-07T20:45:14.291Z,15.50
2019-04-07T20:48:01.275Z,15.80
2019-04-07T20:54:09.735Z,16.60
2019-04-07T20:57:23.669Z,14.37
2019-04-07T21:00:28.545Z,13.17
2019-04-07T21:03:36.358Z,15.10
2019-04-07T21:09:39.656Z,14.50
2019-04-07T21:12:31.061Z,17.43
2019-04-07T21:18:38.961Z,16.27
2019-04-07T21:21:47.878Z,17.17
2019-04-07T21:24:55.827Z,15.20
2019-04-07T21:28:06.096Z,15.97
2019-04-07T21:31:15.969Z,17.10
2019-04-07T21:37:02.764Z,18.13
2019-04-07T21:40:10.573Z,15.87
2019-04-07T21:43:18.378Z,18.80
2019-04-07T21:46:02.530Z,18.77
2019-04-07T21:52:06.689Z,19.67
2019-04-07T21:58:26.635Z,21.17
2019-04-07T22:01:37.708Z,16.13
2019-04-07T22:04:44.119Z,23.37
2019-04-07T22:07:51.927Z,17.15
2019-04-07T22:10:41.536Z,14.70
2019-04-07T22:13:34.579Z,16.60
2019-04-07T22:16:23.934Z,15.57
2019-04-07T22:19:13.982Z,18.20
2019-04-07T22:22:02.755Z,20.30
2019-04-07T22:24:51.537Z,18.10
2019-04-07T22:27:41.061Z,18.30
2019-04-07T22:30:30.839Z,15.80
2019-04-07T22:33:22.876Z,17.40
2019-04-07T22:36:13.918Z,17.90
2019-04-07T22:39:02.428Z,15.33
2019-04-07T22:41:51.207Z,16.23
2019-04-07T22:44:33.569Z,17.60
2019-04-07T22:47:23.323Z,15.43
2019-04-07T22:50:12.975Z,19.40
2019-04-07T22:53:01.794Z,21.60
2019-04-07T22:55:50.628Z,18.70
2019-04-07T22:58:40.179Z,20.52
2019-04-07T23:01:29.895Z,20.10
2019-04-07T23:04:18.673Z,22.13
2019-04-07T23:07:08.230Z,19.70
2019-04-07T23:09:58.035Z,18.27
2019-04-07T23:12:47.824Z,21.53
2019-04-07T23:15:43.938Z,26.00
2019-04-07T23:18:27.839Z,19.53
2019-04-07T23:21:17.264Z,21.27
2019-04-07T23:24:06.113Z,19.33
2019-04-07T23:26:54.893Z,21.80
2019-04-07T23:29:44.359Z,20.50
2019-04-07T23:32:34.295Z,18.17
2019-04-07T23:35:23.081Z,18.97
2019-04-07T23:38:11.993Z,19.73
2019-04-07T23:41:01.181Z,18.37
2019-04-07T23:43:51.326Z,18.97
2019-04-07T23:46:33.770Z,19.90
2019-04-07T23:49:22.612Z,20.37
2019-04-07T23:52:11.371Z,22.17
2019-04-07T23:55:00.179Z,17.30
2019-04-07T23:57:48.944Z,21.17
